Silsden, United Kingdom
Current Conditions -  °F | °C
As of 4:50 AM on Tuesday 21 Oct 2014 (Local Time) from EGNM Reporting Station
Rain Showers Rain Showers  
Wind Chill: 12°   Ceiling: 1000
Heat Index: 12°   Visibility: 6mi
Dew Point: 11°   Wind: 23mph
Humidity: 94%   Direction: 210°SSW
Pressure: 29.29"   Gusts: 37mph
Location:  53.91°N, 1.94°W
Report Text: EGNM 210350Z 21020G32KT 180V250 9999 -SHRA BKN010 12/11 Q0992
Loading
Personal Weather Stations






























Interactive Weather Map
Tropical Storm Tracking
New forecast layout! Learn more

10-Day Weather Forecast

Advertisements
Track Severe Weather on mobile